sensor_id;sensor_type;location;lat;lon;timestamp;P1;durP1;ratioP1;P2;durP2;ratioP2
5912;SDS011;2982;42.684;23.356;2022-12-29T00:02:14;29.73;;;20.20;;
5912;SDS011;2982;42.684;23.356;2022-12-29T00:04:41;34.53;;;22.20;;
5912;SDS011;2982;42.684;23.356;2022-12-29T00:07:06;37.07;;;22.80;;
5912;SDS011;2982;42.684;23.356;2022-12-29T00:09:32;40.13;;;24.47;;
5912;SDS011;2982;42.684;23.356;2022-12-29T00:11:58;38.93;;;24.07;;
5912;SDS011;2982;42.684;23.356;2022-12-29T00:14:25;43.83;;;25.83;;
5912;SDS011;2982;42.684;23.356;2022-12-29T00:16:50;43.23;;;26.10;;
5912;SDS011;2982;42.684;23.356;2022-12-29T00:19:15;43.27;;;24.73;;
5912;SDS011;2982;42.684;23.356;2022-12-29T00:21:40;42.60;;;25.80;;
5912;SDS011;2982;42.684;23.356;2022-12-29T00:24:06;37.80;;;25.43;;
5912;SDS011;2982;42.684;23.356;2022-12-29T00:26:36;43.07;;;25.40;;
5912;SDS011;2982;42.684;23.356;2022-12-29T00:29:02;33.33;;;21.30;;
5912;SDS011;2982;42.684;23.356;2022-12-29T00:31:27;36.27;;;21.20;;
5912;SDS011;2982;42.684;23.356;2022-12-29T00:33:53;27.60;;;18.40;;
5912;SDS011;2982;42.684;23.356;2022-12-29T00:36:19;27.90;;;17.30;;
5912;SDS011;2982;42.684;23.356;2022-12-29T00:39:04;25.70;;;16.53;;
5912;SDS011;2982;42.684;23.356;2022-12-29T00:41:34;24.60;;;17.13;;
5912;SDS011;2982;42.684;23.356;2022-12-29T00:44:00;22.23;;;15.70;;
5912;SDS011;2982;42.684;23.356;2022-12-29T00:46:26;27.03;;;17.57;;
5912;SDS011;2982;42.684;23.356;2022-12-29T00:48:51;21.90;;;16.07;;
5912;SDS011;2982;42.684;23.356;2022-12-29T00:51:16;21.87;;;15.80;;
5912;SDS011;2982;42.684;23.356;2022-12-29T00:53:41;22.57;;;15.87;;
5912;SDS011;2982;42.684;23.356;2022-12-29T00:56:07;22.30;;;15.63;;
5912;SDS011;2982;42.684;23.356;2022-12-29T00:58:32;21.70;;;15.37;;
5912;SDS011;2982;42.684;23.356;2022-12-29T01:01:04;19.90;;;14.90;;
5912;SDS011;2982;42.684;23.356;2022-12-29T01:03:31;21.50;;;16.63;;
5912;SDS011;2982;42.684;23.356;2022-12-29T01:05:59;24.00;;;15.70;;
5912;SDS011;2982;42.684;23.356;2022-12-29T01:08:26;20.13;;;14.03;;
5912;SDS011;2982;42.684;23.356;2022-12-29T01:11:03;21.37;;;15.40;;
5912;SDS011;2982;42.684;23.356;2022-12-29T01:13:30;22.83;;;15.23;;
5912;SDS011;2982;42.684;23.356;2022-12-29T01:15:55;21.07;;;15.53;;
5912;SDS011;2982;42.684;23.356;2022-12-29T01:18:21;18.57;;;15.70;;
5912;SDS011;2982;42.684;23.356;2022-12-29T01:20:48;22.07;;;15.07;;
5912;SDS011;2982;42.684;23.356;2022-12-29T01:23:13;20.13;;;14.23;;
5912;SDS011;2982;42.684;23.356;2022-12-29T01:25:39;20.67;;;14.50;;
5912;SDS011;2982;42.684;23.356;2022-12-29T01:28:04;19.20;;;13.27;;
5912;SDS011;2982;42.684;23.356;2022-12-29T01:30:30;17.60;;;13.70;;
5912;SDS011;2982;42.684;23.356;2022-12-29T01:32:55;15.30;;;12.67;;
5912;SDS011;2982;42.684;23.356;2022-12-29T01:35:20;17.40;;;12.70;;
5912;SDS011;2982;42.684;23.356;2022-12-29T01:37:46;16.77;;;13.37;;
5912;SDS011;2982;42.684;23.356;2022-12-29T01:40:11;20.77;;;13.40;;
5912;SDS011;2982;42.684;23.356;2022-12-29T01:42:37;18.90;;;12.80;;
5912;SDS011;2982;42.684;23.356;2022-12-29T01:45:03;21.23;;;13.77;;
5912;SDS011;2982;42.684;23.356;2022-12-29T01:50:01;17.97;;;14.13;;
5912;SDS011;2982;42.684;23.356;2022-12-29T01:52:31;18.47;;;13.53;;
5912;SDS011;2982;42.684;23.356;2022-12-29T01:54:58;17.27;;;14.40;;
5912;SDS011;2982;42.684;23.356;2022-12-29T01:57:27;18.63;;;13.60;;
5912;SDS011;2982;42.684;23.356;2022-12-29T01:59:58;19.43;;;13.70;;
5912;SDS011;2982;42.684;23.356;2022-12-29T02:02:27;17.73;;;13.73;;
5912;SDS011;2982;42.684;23.356;2022-12-29T02:04:53;18.97;;;14.40;;
5912;SDS011;2982;42.684;23.356;2022-12-29T02:07:21;18.43;;;13.20;;
5912;SDS011;2982;42.684;23.356;2022-12-29T02:09:49;20.57;;;13.97;;
5912;SDS011;2982;42.684;23.356;2022-12-29T02:12:18;17.30;;;13.13;;
5912;SDS011;2982;42.684;23.356;2022-12-29T02:14:45;16.40;;;12.07;;
5912;SDS011;2982;42.684;23.356;2022-12-29T02:20:04;21.20;;;14.17;;
5912;SDS011;2982;42.684;23.356;2022-12-29T02:25:47;19.27;;;13.33;;
5912;SDS011;2982;42.684;23.356;2022-12-29T02:34:10;15.27;;;13.13;;
5912;SDS011;2982;42.684;23.356;2022-12-29T02:42:09;18.07;;;12.23;;
5912;SDS011;2982;42.684;23.356;2022-12-29T02:50:01;16.83;;;12.87;;
5912;SDS011;2982;42.684;23.356;2022-12-29T02:52:38;17.37;;;13.03;;
5912;SDS011;2982;42.684;23.356;2022-12-29T02:55:10;16.83;;;13.07;;
5912;SDS011;2982;42.684;23.356;2022-12-29T02:57:36;15.87;;;12.43;;
5912;SDS011;2982;42.684;23.356;2022-12-29T03:00:06;17.97;;;13.23;;
5912;SDS011;2982;42.684;23.356;2022-12-29T03:05:18;18.73;;;13.30;;
5912;SDS011;2982;42.684;23.356;2022-12-29T03:08:13;16.63;;;13.30;;
5912;SDS011;2982;42.684;23.356;2022-12-29T03:11:08;17.23;;;13.50;;
5912;SDS011;2982;42.684;23.356;2022-12-29T03:13:37;18.67;;;13.60;;
5912;SDS011;2982;42.684;23.356;2022-12-29T03:16:26;18.33;;;12.83;;
5912;SDS011;2982;42.684;23.356;2022-12-29T03:21:59;17.87;;;13.93;;
5912;SDS011;2982;42.684;23.356;2022-12-29T03:24:27;17.27;;;13.43;;
5912;SDS011;2982;42.684;23.356;2022-12-29T03:26:56;21.33;;;13.77;;
5912;SDS011;2982;42.684;23.356;2022-12-29T03:29:25;19.77;;;13.23;;
5912;SDS011;2982;42.684;23.356;2022-12-29T03:31:52;17.97;;;14.30;;
5912;SDS011;2982;42.684;23.356;2022-12-29T03:34:20;19.13;;;14.33;;
5912;SDS011;2982;42.684;23.356;2022-12-29T03:36:52;19.97;;;14.23;;
5912;SDS011;2982;42.684;23.356;2022-12-29T03:39:22;21.00;;;14.40;;
5912;SDS011;2982;42.684;23.356;2022-12-29T03:41:50;18.43;;;13.37;;
5912;SDS011;2982;42.684;23.356;2022-12-29T03:44:20;17.43;;;13.53;;
5912;SDS011;2982;42.684;23.356;2022-12-29T03:46:46;19.33;;;14.83;;
5912;SDS011;2982;42.684;23.356;2022-12-29T03:49:11;19.33;;;12.70;;
5912;SDS011;2982;42.684;23.356;2022-12-29T03:51:36;25.57;;;15.63;;
5912;SDS011;2982;42.684;23.356;2022-12-29T03:54:02;22.10;;;14.47;;
5912;SDS011;2982;42.684;23.356;2022-12-29T03:56:27;21.50;;;14.10;;
5912;SDS011;2982;42.684;23.356;2022-12-29T03:58:53;24.20;;;14.40;;
5912;SDS011;2982;42.684;23.356;2022-12-29T04:01:18;25.23;;;13.77;;
5912;SDS011;2982;42.684;23.356;2022-12-29T04:03:43;22.97;;;15.37;;
5912;SDS011;2982;42.684;23.356;2022-12-29T04:06:09;23.53;;;14.53;;
5912;SDS011;2982;42.684;23.356;2022-12-29T04:08:34;22.93;;;14.40;;
5912;SDS011;2982;42.684;23.356;2022-12-29T04:10:59;22.47;;;16.27;;
5912;SDS011;2982;42.684;23.356;2022-12-29T04:13:24;22.77;;;15.00;;
5912;SDS011;2982;42.684;23.356;2022-12-29T04:15:50;21.27;;;14.93;;
5912;SDS011;2982;42.684;23.356;2022-12-29T04:18:15;22.50;;;14.70;;
5912;SDS011;2982;42.684;23.356;2022-12-29T04:20:40;24.77;;;15.70;;
5912;SDS011;2982;42.684;23.356;2022-12-29T04:23:06;22.33;;;15.23;;
5912;SDS011;2982;42.684;23.356;2022-12-29T04:25:32;24.80;;;14.90;;
5912;SDS011;2982;42.684;23.356;2022-12-29T04:27:57;20.60;;;15.27;;
5912;SDS011;2982;42.684;23.356;2022-12-29T04:30:23;22.07;;;16.43;;
5912;SDS011;2982;42.684;23.356;2022-12-29T04:32:48;22.13;;;15.13;;
5912;SDS011;2982;42.684;23.356;2022-12-29T04:35:13;24.47;;;16.10;;
5912;SDS011;2982;42.684;23.356;2022-12-29T04:37:39;18.97;;;13.73;;
5912;SDS011;2982;42.684;23.356;2022-12-29T04:40:04;22.50;;;15.33;;
5912;SDS011;2982;42.684;23.356;2022-12-29T04:42:30;22.67;;;15.27;;
5912;SDS011;2982;42.684;23.356;2022-12-29T04:44:55;26.90;;;15.27;;
5912;SDS011;2982;42.684;23.356;2022-12-29T04:47:20;17.33;;;13.50;;
5912;SDS011;2982;42.684;23.356;2022-12-29T04:49:46;22.83;;;14.07;;
5912;SDS011;2982;42.684;23.356;2022-12-29T04:52:11;22.37;;;14.30;;
5912;SDS011;2982;42.684;23.356;2022-12-29T04:54:36;21.23;;;13.70;;
5912;SDS011;2982;42.684;23.356;2022-12-29T04:57:02;19.23;;;14.70;;
5912;SDS011;2982;42.684;23.356;2022-12-29T04:59:27;19.57;;;13.60;;
5912;SDS011;2982;42.684;23.356;2022-12-29T05:01:52;19.53;;;14.33;;
5912;SDS011;2982;42.684;23.356;2022-12-29T05:04:17;17.50;;;13.53;;
5912;SDS011;2982;42.684;23.356;2022-12-29T05:06:43;20.67;;;13.73;;
5912;SDS011;2982;42.684;23.356;2022-12-29T05:09:08;20.13;;;14.40;;
5912;SDS011;2982;42.684;23.356;2022-12-29T05:11:33;29.27;;;15.00;;
5912;SDS011;2982;42.684;23.356;2022-12-29T05:13:59;19.57;;;14.67;;
5912;SDS011;2982;42.684;23.356;2022-12-29T05:16:24;17.70;;;13.10;;
5912;SDS011;2982;42.684;23.356;2022-12-29T05:18:50;18.07;;;14.00;;
5912;SDS011;2982;42.684;23.356;2022-12-29T05:21:15;22.73;;;13.77;;
5912;SDS011;2982;42.684;23.356;2022-12-29T05:23:40;20.27;;;13.83;;
5912;SDS011;2982;42.684;23.356;2022-12-29T05:26:05;17.70;;;14.00;;
5912;SDS011;2982;42.684;23.356;2022-12-29T05:28:31;21.23;;;14.67;;
5912;SDS011;2982;42.684;23.356;2022-12-29T05:30:56;17.13;;;14.07;;
5912;SDS011;2982;42.684;23.356;2022-12-29T05:33:21;15.83;;;13.90;;
5912;SDS011;2982;42.684;23.356;2022-12-29T05:35:48;18.27;;;14.13;;
5912;SDS011;2982;42.684;23.356;2022-12-29T05:38:13;18.03;;;14.40;;
5912;SDS011;2982;42.684;23.356;2022-12-29T05:40:38;24.70;;;14.10;;
5912;SDS011;2982;42.684;23.356;2022-12-29T05:43:03;16.60;;;13.43;;
5912;SDS011;2982;42.684;23.356;2022-12-29T05:45:29;18.23;;;13.80;;
5912;SDS011;2982;42.684;23.356;2022-12-29T05:47:54;24.73;;;14.30;;
5912;SDS011;2982;42.684;23.356;2022-12-29T05:50:19;20.53;;;14.63;;
5912;SDS011;2982;42.684;23.356;2022-12-29T05:52:45;23.80;;;15.30;;
5912;SDS011;2982;42.684;23.356;2022-12-29T05:55:10;22.13;;;15.03;;
5912;SDS011;2982;42.684;23.356;2022-12-29T05:57:36;23.97;;;15.13;;
5912;SDS011;2982;42.684;23.356;2022-12-29T06:00:02;23.40;;;14.67;;
5912;SDS011;2982;42.684;23.356;2022-12-29T06:02:32;21.37;;;14.97;;
5912;SDS011;2982;42.684;23.356;2022-12-29T06:04:57;22.67;;;14.97;;
5912;SDS011;2982;42.684;23.356;2022-12-29T06:07:22;22.53;;;15.30;;
5912;SDS011;2982;42.684;23.356;2022-12-29T06:09:48;28.50;;;14.87;;
5912;SDS011;2982;42.684;23.356;2022-12-29T06:12:13;23.60;;;14.47;;
5912;SDS011;2982;42.684;23.356;2022-12-29T06:14:38;20.70;;;15.03;;
5912;SDS011;2982;42.684;23.356;2022-12-29T06:17:03;22.53;;;14.87;;
5912;SDS011;2982;42.684;23.356;2022-12-29T06:19:29;24.90;;;15.50;;
5912;SDS011;2982;42.684;23.356;2022-12-29T06:21:54;25.30;;;15.93;;
5912;SDS011;2982;42.684;23.356;2022-12-29T06:24:20;24.77;;;16.07;;
5912;SDS011;2982;42.684;23.356;2022-12-29T06:26:46;27.60;;;15.70;;
5912;SDS011;2982;42.684;23.356;2022-12-29T06:29:11;23.03;;;15.60;;
5912;SDS011;2982;42.684;23.356;2022-12-29T06:31:36;28.00;;;16.50;;
5912;SDS011;2982;42.684;23.356;2022-12-29T06:34:02;22.73;;;16.17;;
5912;SDS011;2982;42.684;23.356;2022-12-29T06:36:27;24.97;;;16.37;;
5912;SDS011;2982;42.684;23.356;2022-12-29T06:38:52;25.83;;;16.33;;
5912;SDS011;2982;42.684;23.356;2022-12-29T06:41:18;26.03;;;15.87;;
5912;SDS011;2982;42.684;23.356;2022-12-29T06:43:44;26.60;;;16.70;;
5912;SDS011;2982;42.684;23.356;2022-12-29T06:46:09;26.43;;;17.43;;
5912;SDS011;2982;42.684;23.356;2022-12-29T06:48:35;28.70;;;16.33;;
5912;SDS011;2982;42.684;23.356;2022-12-29T06:51:00;25.67;;;16.93;;
5912;SDS011;2982;42.684;23.356;2022-12-29T06:53:25;25.27;;;16.33;;
5912;SDS011;2982;42.684;23.356;2022-12-29T06:55:51;30.23;;;18.20;;
5912;SDS011;2982;42.684;23.356;2022-12-29T06:58:16;24.63;;;17.50;;
5912;SDS011;2982;42.684;23.356;2022-12-29T07:00:41;29.37;;;18.40;;
5912;SDS011;2982;42.684;23.356;2022-12-29T07:03:07;33.93;;;18.13;;
5912;SDS011;2982;42.684;23.356;2022-12-29T07:05:32;23.83;;;17.33;;
5912;SDS011;2982;42.684;23.356;2022-12-29T07:07:58;28.83;;;18.10;;
5912;SDS011;2982;42.684;23.356;2022-12-29T07:10:24;22.43;;;16.93;;
5912;SDS011;2982;42.684;23.356;2022-12-29T07:12:49;26.80;;;16.43;;
5912;SDS011;2982;42.684;23.356;2022-12-29T07:15:14;20.77;;;15.83;;
5912;SDS011;2982;42.684;23.356;2022-12-29T07:17:40;23.70;;;16.90;;
5912;SDS011;2982;42.684;23.356;2022-12-29T07:20:06;27.00;;;16.90;;
5912;SDS011;2982;42.684;23.356;2022-12-29T07:22:32;25.40;;;16.23;;
5912;SDS011;2982;42.684;23.356;2022-12-29T07:24:57;22.43;;;16.63;;
5912;SDS011;2982;42.684;23.356;2022-12-29T07:27:22;28.10;;;15.13;;
5912;SDS011;2982;42.684;23.356;2022-12-29T07:29:48;24.97;;;16.50;;
5912;SDS011;2982;42.684;23.356;2022-12-29T07:32:13;24.27;;;17.30;;
5912;SDS011;2982;42.684;23.356;2022-12-29T07:34:39;25.03;;;16.97;;
5912;SDS011;2982;42.684;23.356;2022-12-29T07:37:04;24.50;;;16.20;;
5912;SDS011;2982;42.684;23.356;2022-12-29T07:39:29;22.47;;;16.50;;
5912;SDS011;2982;42.684;23.356;2022-12-29T07:41:54;27.73;;;16.73;;
5912;SDS011;2982;42.684;23.356;2022-12-29T07:44:20;26.80;;;17.23;;
5912;SDS011;2982;42.684;23.356;2022-12-29T07:46:45;30.47;;;18.23;;
5912;SDS011;2982;42.684;23.356;2022-12-29T07:49:10;33.30;;;18.60;;
5912;SDS011;2982;42.684;23.356;2022-12-29T07:51:36;32.20;;;18.80;;
5912;SDS011;2982;42.684;23.356;2022-12-29T07:54:01;26.73;;;18.07;;
5912;SDS011;2982;42.684;23.356;2022-12-29T07:56:27;24.90;;;17.67;;
5912;SDS011;2982;42.684;23.356;2022-12-29T07:58:52;35.47;;;20.80;;
5912;SDS011;2982;42.684;23.356;2022-12-29T08:01:18;28.53;;;19.67;;
5912;SDS011;2982;42.684;23.356;2022-12-29T08:03:43;30.07;;;19.23;;
5912;SDS011;2982;42.684;23.356;2022-12-29T08:06:09;29.13;;;20.20;;
5912;SDS011;2982;42.684;23.356;2022-12-29T08:08:35;32.53;;;20.30;;
5912;SDS011;2982;42.684;23.356;2022-12-29T08:11:01;28.33;;;19.30;;
5912;SDS011;2982;42.684;23.356;2022-12-29T08:13:26;27.60;;;19.73;;
5912;SDS011;2982;42.684;23.356;2022-12-29T08:15:51;32.77;;;21.70;;
5912;SDS011;2982;42.684;23.356;2022-12-29T08:18:17;26.65;;;18.88;;
5912;SDS011;2982;42.684;23.356;2022-12-29T08:20:42;28.20;;;19.38;;
5912;SDS011;2982;42.684;23.356;2022-12-29T08:23:07;28.25;;;18.63;;
5912;SDS011;2982;42.684;23.356;2022-12-29T08:25:33;22.85;;;17.75;;
5912;SDS011;2982;42.684;23.356;2022-12-29T08:27:58;27.08;;;18.98;;
5912;SDS011;2982;42.684;23.356;2022-12-29T08:30:23;27.80;;;18.67;;
5912;SDS011;2982;42.684;23.356;2022-12-29T08:32:48;28.88;;;18.30;;
5912;SDS011;2982;42.684;23.356;2022-12-29T08:35:14;28.20;;;18.42;;
5912;SDS011;2982;42.684;23.356;2022-12-29T08:37:39;23.33;;;18.52;;
5912;SDS011;2982;42.684;23.356;2022-12-29T08:40:05;29.48;;;18.33;;
5912;SDS011;2982;42.684;23.356;2022-12-29T08:42:31;26.55;;;19.13;;
5912;SDS011;2982;42.684;23.356;2022-12-29T08:44:57;24.70;;;18.33;;
5912;SDS011;2982;42.684;23.356;2022-12-29T08:47:23;24.38;;;18.08;;
5912;SDS011;2982;42.684;23.356;2022-12-29T08:49:49;22.53;;;17.07;;
5912;SDS011;2982;42.684;23.356;2022-12-29T08:52:14;25.48;;;18.92;;
5912;SDS011;2982;42.684;23.356;2022-12-29T08:54:39;28.13;;;18.47;;
5912;SDS011;2982;42.684;23.356;2022-12-29T08:57:04;24.27;;;17.30;;
5912;SDS011;2982;42.684;23.356;2022-12-29T08:59:30;26.03;;;17.70;;
5912;SDS011;2982;42.684;23.356;2022-12-29T09:01:55;24.67;;;17.92;;
5912;SDS011;2982;42.684;23.356;2022-12-29T09:04:20;28.10;;;16.37;;
5912;SDS011;2982;42.684;23.356;2022-12-29T09:06:46;27.30;;;17.43;;
5912;SDS011;2982;42.684;23.356;2022-12-29T09:09:11;19.92;;;16.38;;
5912;SDS011;2982;42.684;23.356;2022-12-29T09:11:37;22.80;;;16.75;;
5912;SDS011;2982;42.684;23.356;2022-12-29T09:14:02;22.33;;;16.70;;
5912;SDS011;2982;42.684;23.356;2022-12-29T09:16:28;21.60;;;16.25;;
5912;SDS011;2982;42.684;23.356;2022-12-29T09:18:53;22.50;;;16.33;;
5912;SDS011;2982;42.684;23.356;2022-12-29T09:21:18;28.42;;;17.05;;
5912;SDS011;2982;42.684;23.356;2022-12-29T09:23:44;25.15;;;16.17;;
5912;SDS011;2982;42.684;23.356;2022-12-29T09:26:09;22.90;;;15.80;;
5912;SDS011;2982;42.684;23.356;2022-12-29T09:28:35;24.20;;;16.95;;
5912;SDS011;2982;42.684;23.356;2022-12-29T09:31:00;19.95;;;16.08;;
5912;SDS011;2982;42.684;23.356;2022-12-29T09:33:26;19.52;;;15.40;;
5912;SDS011;2982;42.684;23.356;2022-12-29T09:35:53;21.88;;;15.48;;
5912;SDS011;2982;42.684;23.356;2022-12-29T09:38:19;19.38;;;15.57;;
5912;SDS011;2982;42.684;23.356;2022-12-29T09:40:45;21.05;;;15.88;;
5912;SDS011;2982;42.684;23.356;2022-12-29T09:43:42;21.13;;;15.02;;
5912;SDS011;2982;42.684;23.356;2022-12-29T09:46:34;20.92;;;14.50;;
5912;SDS011;2982;42.684;23.356;2022-12-29T09:49:15;21.42;;;15.57;;
5912;SDS011;2982;42.684;23.356;2022-12-29T09:51:54;28.27;;;17.90;;
5912;SDS011;2982;42.684;23.356;2022-12-29T09:57:43;22.38;;;16.25;;
5912;SDS011;2982;42.684;23.356;2022-12-29T10:00:05;26.35;;;17.73;;
5912;SDS011;2982;42.684;23.356;2022-12-29T10:02:38;22.33;;;15.52;;
5912;SDS011;2982;42.684;23.356;2022-12-29T10:10:43;24.92;;;14.93;;
5912;SDS011;2982;42.684;23.356;2022-12-29T10:21:48;19.25;;;15.95;;
5912;SDS011;2982;42.684;23.356;2022-12-29T10:24:23;22.73;;;16.60;;
5912;SDS011;2982;42.684;23.356;2022-12-29T10:26:51;21.07;;;16.20;;
5912;SDS011;2982;42.684;23.356;2022-12-29T10:29:50;24.50;;;16.55;;
5912;SDS011;2982;42.684;23.356;2022-12-29T10:32:17;22.60;;;15.55;;
5912;SDS011;2982;42.684;23.356;2022-12-29T10:34:51;19.42;;;15.75;;
5912;SDS011;2982;42.684;23.356;2022-12-29T10:37:27;18.45;;;14.82;;
5912;SDS011;2982;42.684;23.356;2022-12-29T10:39:58;23.58;;;15.88;;
5912;SDS011;2982;42.684;23.356;2022-12-29T10:42:36;17.95;;;15.30;;
5912;SDS011;2982;42.684;23.356;2022-12-29T10:45:13;22.60;;;15.60;;
5912;SDS011;2982;42.684;23.356;2022-12-29T10:47:51;25.38;;;15.55;;
5912;SDS011;2982;42.684;23.356;2022-12-29T10:50:23;20.77;;;16.10;;
5912;SDS011;2982;42.684;23.356;2022-12-29T10:52:49;21.23;;;16.00;;
5912;SDS011;2982;42.684;23.356;2022-12-29T10:55:17;20.58;;;15.10;;
5912;SDS011;2982;42.684;23.356;2022-12-29T10:57:47;22.13;;;15.80;;
5912;SDS011;2982;42.684;23.356;2022-12-29T11:00:14;20.08;;;14.65;;
5912;SDS011;2982;42.684;23.356;2022-12-29T11:05:19;23.95;;;14.73;;
5912;SDS011;2982;42.684;23.356;2022-12-29T11:07:52;20.80;;;15.32;;
5912;SDS011;2982;42.684;23.356;2022-12-29T11:12:56;26.38;;;16.92;;
5912;SDS011;2982;42.684;23.356;2022-12-29T11:15:24;22.13;;;16.67;;
5912;SDS011;2982;42.684;23.356;2022-12-29T11:17:53;21.75;;;16.10;;
5912;SDS011;2982;42.684;23.356;2022-12-29T11:20:30;26.85;;;17.13;;
5912;SDS011;2982;42.684;23.356;2022-12-29T11:23:04;21.25;;;16.33;;
5912;SDS011;2982;42.684;23.356;2022-12-29T11:25:45;26.77;;;17.00;;
5912;SDS011;2982;42.684;23.356;2022-12-29T11:28:16;25.02;;;17.67;;
5912;SDS011;2982;42.684;23.356;2022-12-29T11:30:42;20.98;;;17.42;;
5912;SDS011;2982;42.684;23.356;2022-12-29T11:33:08;23.70;;;16.38;;
5912;SDS011;2982;42.684;23.356;2022-12-29T11:35:36;26.05;;;17.98;;
5912;SDS011;2982;42.684;23.356;2022-12-29T11:38:16;27.48;;;19.20;;
5912;SDS011;2982;42.684;23.356;2022-12-29T11:40:45;26.25;;;17.63;;
5912;SDS011;2982;42.684;23.356;2022-12-29T11:43:18;27.73;;;17.80;;
5912;SDS011;2982;42.684;23.356;2022-12-29T11:45:48;26.45;;;18.40;;
5912;SDS011;2982;42.684;23.356;2022-12-29T11:48:17;27.52;;;17.98;;
5912;SDS011;2982;42.684;23.356;2022-12-29T11:50:54;27.83;;;18.60;;
5912;SDS011;2982;42.684;23.356;2022-12-29T11:56:10;29.98;;;20.60;;
5912;SDS011;2982;42.684;23.356;2022-12-29T11:58:39;27.10;;;19.23;;
5912;SDS011;2982;42.684;23.356;2022-12-29T12:01:16;25.35;;;18.63;;
5912;SDS011;2982;42.684;23.356;2022-12-29T12:03:47;30.55;;;19.52;;
5912;SDS011;2982;42.684;23.356;2022-12-29T12:06:21;31.80;;;21.60;;
5912;SDS011;2982;42.684;23.356;2022-12-29T12:08:49;27.58;;;18.42;;
5912;SDS011;2982;42.684;23.356;2022-12-29T12:16:55;26.23;;;16.98;;
5912;SDS011;2982;42.684;23.356;2022-12-29T12:22:21;27.60;;;18.13;;
5912;SDS011;2982;42.684;23.356;2022-12-29T12:24:56;23.17;;;15.52;;
5912;SDS011;2982;42.684;23.356;2022-12-29T12:27:29;28.92;;;16.05;;
5912;SDS011;2982;42.684;23.356;2022-12-29T12:30:02;23.25;;;15.85;;
5912;SDS011;2982;42.684;23.356;2022-12-29T12:49:26;20.42;;;15.55;;
5912;SDS011;2982;42.684;23.356;2022-12-29T12:58:07;19.98;;;14.57;;
5912;SDS011;2982;42.684;23.356;2022-12-29T13:03:44;22.55;;;14.05;;
5912;SDS011;2982;42.684;23.356;2022-12-29T13:11:36;22.55;;;17.67;;
5912;SDS011;2982;42.684;23.356;2022-12-29T13:16:57;25.75;;;17.85;;
5912;SDS011;2982;42.684;23.356;2022-12-29T13:27:35;24.92;;;17.88;;
5912;SDS011;2982;42.684;23.356;2022-12-29T13:30:15;22.55;;;16.88;;
5912;SDS011;2982;42.684;23.356;2022-12-29T13:38:26;30.08;;;19.52;;
5912;SDS011;2982;42.684;23.356;2022-12-29T13:41:00;34.42;;;19.75;;
5912;SDS011;2982;42.684;23.356;2022-12-29T13:43:31;30.15;;;19.73;;
5912;SDS011;2982;42.684;23.356;2022-12-29T13:46:00;26.45;;;19.75;;
5912;SDS011;2982;42.684;23.356;2022-12-29T13:48:39;27.90;;;19.63;;
5912;SDS011;2982;42.684;23.356;2022-12-29T13:51:13;34.38;;;20.83;;
5912;SDS011;2982;42.684;23.356;2022-12-29T13:56:39;26.70;;;18.73;;
5912;SDS011;2982;42.684;23.356;2022-12-29T14:04:28;26.00;;;19.23;;
5912;SDS011;2982;42.684;23.356;2022-12-29T14:09:41;31.30;;;20.08;;
5912;SDS011;2982;42.684;23.356;2022-12-29T14:12:34;34.55;;;20.23;;
5912;SDS011;2982;42.684;23.356;2022-12-29T14:17:34;30.55;;;21.20;;
5912;SDS011;2982;42.684;23.356;2022-12-29T14:19:59;32.15;;;20.00;;
5912;SDS011;2982;42.684;23.356;2022-12-29T14:22:26;32.85;;;21.42;;
5912;SDS011;2982;42.684;23.356;2022-12-29T14:24:53;28.98;;;19.23;;
5912;SDS011;2982;42.684;23.356;2022-12-29T14:29:47;24.13;;;16.35;;
5912;SDS011;2982;42.684;23.356;2022-12-29T14:34:45;21.65;;;14.75;;
5912;SDS011;2982;42.684;23.356;2022-12-29T14:40:03;21.45;;;14.60;;
5912;SDS011;2982;42.684;23.356;2022-12-29T14:42:29;24.50;;;15.07;;
5912;SDS011;2982;42.684;23.356;2022-12-29T14:52:51;22.50;;;15.68;;
5912;SDS011;2982;42.684;23.356;2022-12-29T14:57:43;24.80;;;15.85;;
5912;SDS011;2982;42.684;23.356;2022-12-29T15:02:48;24.15;;;16.70;;
5912;SDS011;2982;42.684;23.356;2022-12-29T15:05:24;28.85;;;17.10;;
5912;SDS011;2982;42.684;23.356;2022-12-29T15:07:54;24.30;;;16.20;;
5912;SDS011;2982;42.684;23.356;2022-12-29T15:10:21;27.37;;;16.63;;
5912;SDS011;2982;42.684;23.356;2022-12-29T15:12:55;26.75;;;16.88;;
5912;SDS011;2982;42.684;23.356;2022-12-29T15:17:50;33.85;;;17.42;;
5912;SDS011;2982;42.684;23.356;2022-12-29T15:22:43;29.17;;;16.40;;
5912;SDS011;2982;42.684;23.356;2022-12-29T15:25:14;30.27;;;18.03;;
5912;SDS011;2982;42.684;23.356;2022-12-29T15:27:41;32.23;;;17.40;;
5912;SDS011;2982;42.684;23.356;2022-12-29T15:30:11;31.95;;;17.30;;
5912;SDS011;2982;42.684;23.356;2022-12-29T15:32:44;39.93;;;18.47;;
5912;SDS011;2982;42.684;23.356;2022-12-29T15:35:22;29.93;;;17.30;;
5912;SDS011;2982;42.684;23.356;2022-12-29T15:37:59;41.93;;;18.93;;
5912;SDS011;2982;42.684;23.356;2022-12-29T15:40:36;30.25;;;18.33;;
5912;SDS011;2982;42.684;23.356;2022-12-29T15:45:29;32.95;;;19.60;;
5912;SDS011;2982;42.684;23.356;2022-12-29T15:47:58;31.98;;;20.23;;
5912;SDS011;2982;42.684;23.356;2022-12-29T15:50:26;37.78;;;21.13;;
5912;SDS011;2982;42.684;23.356;2022-12-29T15:52:54;32.95;;;22.02;;
5912;SDS011;2982;42.684;23.356;2022-12-29T15:57:55;45.53;;;24.88;;
5912;SDS011;2982;42.684;23.356;2022-12-29T16:02:49;45.47;;;24.85;;
5912;SDS011;2982;42.684;23.356;2022-12-29T16:05:17;51.03;;;27.27;;
5912;SDS011;2982;42.684;23.356;2022-12-29T16:08:46;40.03;;;26.40;;
5912;SDS011;2982;42.684;23.356;2022-12-29T16:10:52;52.40;;;26.40;;
5912;SDS011;2982;42.684;23.356;2022-12-29T16:13:24;50.30;;;28.63;;
5912;SDS011;2982;42.684;23.356;2022-12-29T16:15:55;55.03;;;27.17;;
5912;SDS011;2982;42.684;23.356;2022-12-29T16:18:27;41.60;;;25.70;;
5912;SDS011;2982;42.684;23.356;2022-12-29T16:20:55;48.73;;;27.23;;
5912;SDS011;2982;42.684;23.356;2022-12-29T16:23:23;48.57;;;26.90;;
5912;SDS011;2982;42.684;23.356;2022-12-29T16:25:51;46.43;;;26.27;;
5912;SDS011;2982;42.684;23.356;2022-12-29T16:28:20;50.73;;;27.10;;
5912;SDS011;2982;42.684;23.356;2022-12-29T16:30:56;54.90;;;28.00;;
5912;SDS011;2982;42.684;23.356;2022-12-29T16:33:32;82.67;;;30.20;;
5912;SDS011;2982;42.684;23.356;2022-12-29T16:36:02;85.13;;;32.03;;
5912;SDS011;2982;42.684;23.356;2022-12-29T16:38:47;58.60;;;29.73;;
5912;SDS011;2982;42.684;23.356;2022-12-29T16:41:12;84.80;;;35.60;;
5912;SDS011;2982;42.684;23.356;2022-12-29T16:46:43;98.50;;;50.97;;
5912;SDS011;2982;42.684;23.356;2022-12-29T16:49:31;63.33;;;32.57;;
5912;SDS011;2982;42.684;23.356;2022-12-29T16:51:57;81.90;;;37.40;;
5912;SDS011;2982;42.684;23.356;2022-12-29T16:54:35;62.33;;;34.70;;
5912;SDS011;2982;42.684;23.356;2022-12-29T16:57:02;89.33;;;44.07;;
5912;SDS011;2982;42.684;23.356;2022-12-29T16:59:32;71.97;;;36.83;;
5912;SDS011;2982;42.684;23.356;2022-12-29T17:02:01;99.67;;;39.73;;
5912;SDS011;2982;42.684;23.356;2022-12-29T17:04:31;101.57;;;52.00;;
5912;SDS011;2982;42.684;23.356;2022-12-29T17:06:57;104.30;;;53.47;;
5912;SDS011;2982;42.684;23.356;2022-12-29T17:09:24;74.53;;;42.67;;
5912;SDS011;2982;42.684;23.356;2022-12-29T17:11:52;79.93;;;39.57;;
5912;SDS011;2982;42.684;23.356;2022-12-29T17:17:12;99.87;;;50.10;;
5912;SDS011;2982;42.684;23.356;2022-12-29T17:19:47;90.33;;;44.27;;
5912;SDS011;2982;42.684;23.356;2022-12-29T17:22:19;92.27;;;39.83;;
5912;SDS011;2982;42.684;23.356;2022-12-29T17:24:59;73.30;;;39.30;;
5912;SDS011;2982;42.684;23.356;2022-12-29T17:27:27;74.47;;;39.07;;